Time;durP1;ratioP1;P1;durP2;ratioP2;P2;SDS_P1;SDS_P2;PMS_P1;PMS_P2;Temp;Humidity;BMP_temperature;BMP_pressure;BME280_temperature;BME280_humidity;BME280_pressure;Samples;Min_cycle;Max_cycle;Signal;HPM_P1;HPM_P2
2022/07/05 00:03:08;;;;;;;3.40;3.10;;;;;;;20.84;58.79;98712.76;219182;1276;24968;-68
2022/07/05 00:08:11;;;;;;;3.40;3.10;;;;;;;20.78;59.45;98704.09;219439;1276;24434;-70
2022/07/05 00:13:13;;;;;;;3.80;3.00;;;;;;;20.69;59.33;98705.41;219081;1276;22551;-69
2022/07/05 00:18:16;;;;;;;3.60;3.10;;;;;;;20.64;59.85;98716.54;216880;1276;3224198;-69
2022/07/05 00:23:26;;;;;;;3.30;3.00;;;;;;;20.61;60.29;98722.70;219342;1276;22566;-69
2022/07/05 00:28:43;;;;;;;3.40;3.10;;;;;;;20.63;60.18;98721.95;219119;1276;22673;-69
2022/07/05 00:33:52;;;;;;;3.90;3.60;;;;;;;20.67;60.36;98725.80;219130;1276;25258;-68
2022/07/05 00:38:54;;;;;;;4.30;3.90;;;;;;;20.73;60.77;98724.36;219029;1276;25566;-68
2022/07/05 00:44:00;;;;;;;3.80;3.50;;;;;;;20.75;60.87;98726.27;219325;1276;24214;-68
2022/07/05 00:49:04;;;;;;;4.00;3.60;;;;;;;20.77;60.68;98727.40;219268;1276;24654;-68
2022/07/05 00:54:13;;;;;;;3.70;3.40;;;;;;;20.79;60.56;98708.94;219261;1276;24768;-69
2022/07/05 00:59:15;;;;;;;4.50;3.50;;;;;;;20.81;60.35;98698.86;219059;1278;22677;-68
2022/07/05 01:04:17;;;;;;;3.50;3.30;;;;;;;20.83;60.50;98703.73;219127;1276;24215;-67
2022/07/05 01:09:22;;;;;;;3.70;3.40;;;;;;;20.82;60.54;98704.09;219106;1276;23036;-67
2022/07/05 01:14:24;;;;;;;6.30;3.80;;;;;;;20.77;60.76;98705.38;219175;1276;22538;-68
2022/07/05 01:19:27;;;;;;;4.00;3.70;;;;;;;20.69;61.22;98705.60;219270;1276;26394;-67
2022/07/05 01:24:30;;;;;;;4.30;3.90;;;;;;;20.63;61.39;98706.33;219284;1276;23178;-68
2022/07/05 01:29:34;;;;;;;4.60;4.20;;;;;;;20.61;61.46;98708.92;219304;1276;24220;-68
2022/07/05 01:34:38;;;;;;;4.50;4.10;;;;;;;20.60;61.63;98707.73;219285;1276;22938;-68
2022/07/05 01:39:43;;;;;;;4.90;4.40;;;;;;;20.57;61.79;98705.64;219085;1276;22560;-69
2022/07/05 01:44:45;;;;;;;4.90;4.50;;;;;;;20.51;62.20;98705.75;219112;1276;22608;-68
2022/07/05 01:49:53;;;;;;;5.70;4.70;;;;;;;20.40;62.45;98701.32;219355;1276;25265;-68
2022/07/05 01:54:55;;;;;;;5.80;5.30;;;;;;;20.24;62.88;98693.59;219236;1276;25322;-69
2022/07/05 01:59:57;;;;;;;5.90;5.00;;;;;;;20.10;63.41;98692.45;219205;1276;22708;-69
2022/07/05 02:05:02;;;;;;;5.50;4.90;;;;;;;19.93;63.75;98700.36;219208;1276;25257;-67
2022/07/05 02:10:05;;;;;;;5.90;4.90;;;;;;;19.81;64.37;98713.67;219302;1276;22683;-69
2022/07/05 02:15:10;;;;;;;5.60;5.10;;;;;;;19.74;64.47;98717.03;219125;1276;25358;-68
2022/07/05 02:20:12;;;;;;;6.40;5.80;;;;;;;19.63;64.62;98716.55;219163;1276;26502;-69
2022/07/05 02:25:15;;;;;;;6.40;5.80;;;;;;;19.53;64.75;98716.06;219237;1276;22548;-69
2022/07/05 02:30:18;;;;;;;6.60;6.00;;;;;;;19.43;65.07;98709.36;219291;1276;22587;-67
2022/07/05 02:35:21;;;;;;;6.90;5.70;;;;;;;19.36;65.37;98704.23;219245;1276;22604;-69
2022/07/05 02:40:23;;;;;;;7.00;6.30;;;;;;;19.28;65.61;98700.92;219114;1276;22550;-68
2022/07/05 02:45:26;;;;;;;6.70;6.10;;;;;;;19.22;65.83;98704.40;219234;1276;22540;-68
2022/07/05 02:50:37;;;;;;;6.40;5.80;;;;;;;19.19;66.12;98705.63;219142;1276;24927;-68
2022/07/05 02:55:40;;;;;;;6.70;6.10;;;;;;;19.19;66.17;98705.02;219242;1276;22563;-68
2022/07/05 03:00:47;;;;;;;7.10;6.30;;;;;;;19.22;66.15;98700.52;219293;1276;24313;-67
2022/07/05 03:05:51;;;;;;;6.80;5.80;;;;;;;19.28;66.22;98702.95;219368;1276;22604;-69
2022/07/05 03:10:53;;;;;;;6.90;6.30;;;;;;;19.34;66.40;98704.85;219174;1276;24360;-69
2022/07/05 03:15:56;;;;;;;6.00;5.40;;;;;;;19.38;66.57;98707.91;218964;1276;25382;-68
2022/07/05 03:21:00;;;;;;;7.60;6.70;;;;;;;19.41;67.08;98713.98;219209;1276;24295;-69
2022/07/05 03:26:05;;;;;;;7.20;6.00;;;;;;;19.39;67.46;98724.17;219307;1276;22555;-69
2022/07/05 03:31:08;;;;;;;7.10;6.40;;;;;;;19.40;68.29;98743.20;219233;1276;25321;-69
2022/07/05 03:36:13;;;;;;;7.00;6.30;;;;;;;19.33;68.50;98748.36;219386;1276;25203;-68
2022/07/05 03:41:16;;;;;;;7.70;6.50;;;;;;;19.25;68.79;98754.67;219112;1276;25425;-69
2022/07/05 03:46:19;;;;;;;8.00;7.30;;;;;;;19.14;69.30;98760.05;219345;1276;22807;-68
2022/07/05 03:51:22;;;;;;;8.20;7.40;;;;;;;19.02;69.63;98758.69;219428;1276;25432;-69
2022/07/05 03:56:28;;;;;;;8.30;7.50;;;;;;;18.89;70.08;98761.66;219351;1276;25301;-69
2022/07/05 04:01:34;;;;;;;7.90;7.20;;;;;;;18.76;70.43;98767.23;219375;1276;25865;-69
2022/07/05 04:06:38;;;;;;;9.00;7.70;;;;;;;18.67;71.14;98765.66;219976;1276;22539;-69
2022/07/05 04:11:41;;;;;;;8.40;7.50;;;;;;;18.55;71.61;98767.64;219636;1276;26394;-68
2022/07/05 04:16:56;;;;;;;9.90;8.80;;;;;;;18.42;72.30;98772.20;219442;1276;25245;-69
2022/07/05 04:22:00;;;;;;;9.40;8.40;;;;;;;18.33;73.17;98762.40;219467;1276;22559;-70
2022/07/05 04:27:10;;;;;;;9.60;8.60;;;;;;;18.15;74.47;98754.40;219335;1276;25250;-69
2022/07/05 04:32:33;;;;;;;11.60;10.40;;;;;;;17.92;75.55;98752.95;219308;1276;26413;-71
2022/07/05 04:37:39;;;;;;;11.50;10.10;;;;;;;17.83;76.43;98745.89;219849;1276;25325;-71
2022/07/05 04:42:45;;;;;;;12.40;10.60;;;;;;;17.82;77.05;98735.66;219773;1276;25485;-70
2022/07/05 04:47:49;;;;;;;12.80;11.20;;;;;;;17.82;77.49;98718.64;219690;1276;22584;-70
2022/07/05 04:52:57;;;;;;;12.60;10.70;;;;;;;17.82;77.82;98720.66;219871;1276;22994;-69
2022/07/05 04:58:03;;;;;;;13.50;10.90;;;;;;;17.85;78.48;98738.39;219381;1276;25280;-71
2022/07/05 05:03:06;;;;;;;12.60;11.30;;;;;;;17.86;78.79;98746.48;219454;1276;24143;-71
2022/07/05 05:08:18;;;;;;;12.40;11.20;;;;;;;17.85;78.93;98748.25;219247;1276;25330;-71
2022/07/05 05:13:32;;;;;;;13.90;12.60;;;;;;;17.82;79.23;98757.66;219124;1276;24755;-71
2022/07/05 05:18:35;;;;;;;13.50;12.20;;;;;;;17.83;79.50;98749.40;219167;1276;22540;-71
2022/07/05 05:23:40;;;;;;;13.10;11.80;;;;;;;17.87;79.73;98744.83;219210;1276;25261;-71
2022/07/05 05:28:43;;;;;;;12.60;11.50;;;;;;;17.97;80.34;98751.81;219865;1276;22557;-71
2022/07/05 05:33:46;;;;;;;14.20;12.80;;;;;;;18.12;81.51;98770.27;219810;1276;22697;-70
2022/07/05 05:38:48;;;;;;;14.40;13.00;;;;;;;18.20;81.36;98769.13;219796;1276;22624;-71
2022/07/05 05:44:04;;;;;;;14.50;13.10;;;;;;;18.23;81.18;98768.06;219835;1276;22606;-72
2022/07/05 05:49:14;;;;;;;13.50;12.20;;;;;;;18.28;81.35;98759.70;220009;1276;22561;-71
2022/07/05 05:54:24;;;;;;;15.10;13.50;;;;;;;18.35;81.29;98769.88;220151;1276;22598;-71
2022/07/05 05:59:29;;;;;;;15.20;13.70;;;;;;;18.40;81.25;98770.83;220295;1276;22674;-72
2022/07/05 06:04:31;;;;;;;15.30;13.90;;;;;;;18.45;81.20;98780.14;220457;1276;26177;-73
2022/07/05 06:09:34;;;;;;;16.30;14.70;;;;;;;18.55;81.31;98788.09;220278;1276;22535;-73
2022/07/05 06:14:36;;;;;;;16.40;14.90;;;;;;;18.72;81.57;98794.25;220453;1277;22623;-75
2022/07/05 06:19:39;;;;;;;15.10;13.70;;;;;;;18.93;81.51;98799.93;220058;1276;22537;-72
2022/07/05 06:24:41;;;;;;;15.40;14.10;;;;;;;19.10;81.04;98812.05;220505;1277;22651;-73
2022/07/05 06:30:07;;;;;;;15.30;13.90;;;;;;;19.23;80.68;98821.02;220165;1276;22529;-73
2022/07/05 06:35:10;;;;;;;15.20;13.70;;;;;;;19.31;80.43;98822.73;220456;1276;22603;-73
2022/07/05 06:40:17;;;;;;;15.20;13.90;;;;;;;19.40;79.82;98824.83;220287;1277;25566;-74
2022/07/05 06:45:20;;;;;;;14.70;13.40;;;;;;;19.55;79.99;98826.41;220357;1276;22537;-73
2022/07/05 06:50:23;;;;;;;14.00;12.60;;;;;;;19.76;80.38;98831.77;220721;1276;22808;-73
2022/07/05 06:55:26;;;;;;;15.70;14.10;;;;;;;19.94;79.64;98824.98;220133;1276;22596;-72
2022/07/05 07:00:37;;;;;;;17.00;15.50;;;;;;;20.09;79.62;98823.39;220288;1276;22715;-72
2022/07/05 07:06:02;;;;;;;17.20;15.40;;;;;;;20.40;79.40;98823.29;220279;1277;25427;-73
2022/07/05 07:11:06;;;;;;;16.80;15.20;;;;;;;20.53;78.50;98824.98;220431;1276;22611;-73
2022/07/05 07:16:18;;;;;;;16.60;15.00;;;;;;;20.54;78.31;98823.45;219920;1276;22952;-74
2022/07/05 07:21:21;;;;;;;19.10;17.30;;;;;;;20.58;78.35;98824.39;220230;1276;24235;-73
2022/07/05 07:26:24;;;;;;;17.90;16.30;;;;;;;20.54;77.71;98823.31;220375;1276;22556;-73
2022/07/05 07:31:27;;;;;;;16.10;14.50;;;;;;;20.36;77.27;98821.87;220229;1276;22698;-73
2022/07/05 07:36:29;;;;;;;16.30;14.90;;;;;;;20.20;77.36;98821.65;220218;1276;23377;-73
2022/07/05 07:41:35;;;;;;;17.10;15.40;;;;;;;20.05;77.59;98831.91;220304;1276;25950;-72
2022/07/05 07:46:39;;;;;;;18.10;16.40;;;;;;;19.94;77.71;98831.73;220267;1277;24322;-72
2022/07/05 07:51:42;;;;;;;17.60;15.90;;;;;;;19.92;78.30;98837.17;220354;1276;22633;-72
2022/07/05 07:56:53;;;;;;;18.60;16.80;;;;;;;19.93;78.51;98843.27;220665;1277;25863;-72
2022/07/05 08:01:56;;;;;;;17.80;16.00;;;;;;;20.01;78.47;98842.16;220657;1276;24271;-71
2022/07/05 08:07:20;;;;;;;17.20;15.70;;;;;;;20.14;78.41;98849.31;220592;1276;22726;-72
2022/07/05 08:12:21;;;;;;;17.00;15.50;;;;;;;20.28;78.14;98850.44;220658;1276;23267;-71
2022/07/05 08:17:30;;;;;;;18.60;16.80;;;;;;;20.44;78.00;98850.83;220447;1276;22537;-72
2022/07/05 08:22:32;;;;;;;16.40;14.80;;;;;;;20.53;77.59;98852.66;220165;1276;24256;-72
2022/07/05 08:27:35;;;;;;;17.20;15.50;;;;;;;20.55;77.03;98849.59;220216;1276;22847;-71
2022/07/05 08:32:37;;;;;;;16.20;14.60;;;;;;;20.61;77.20;98855.10;220276;1276;22561;-71
2022/07/05 08:37:39;;;;;;;16.80;15.20;;;;;;;20.74;76.78;98855.36;220269;1278;23337;-71
2022/07/05 08:42:43;;;;;;;16.40;14.80;;;;;;;20.80;76.40;98862.09;220161;1276;22545;-71
2022/07/05 08:47:56;;;;;;;17.10;15.40;;;;;;;20.93;76.56;98867.20;226413;1276;22153;-71
2022/07/05 08:53:00;;;;;;;17.30;15.60;;;;;;;21.02;76.10;98868.42;226416;1276;23854;-71
2022/07/05 08:58:02;;;;;;;17.00;15.20;;;;;;;21.13;75.82;98871.14;226242;1276;23370;-71
2022/07/05 09:03:06;;;;;;;16.20;14.60;;;;;;;21.17;74.83;98874.55;226550;1276;23512;-71
2022/07/05 09:08:16;;;;;;;16.50;15.00;;;;;;;21.19;74.68;98874.60;226315;1276;22398;-72
2022/07/05 09:13:18;;;;;;;16.30;14.90;;;;;;;21.39;75.06;98873.91;226073;1276;22239;-71
2022/07/05 09:18:40;;;;;;;16.40;15.00;;;;;;;21.58;74.24;98875.64;226273;1276;23070;-71
2022/07/05 09:23:43;;;;;;;16.40;15.00;;;;;;;21.74;74.26;98877.52;226416;1276;22416;-71
2022/07/05 09:28:56;;;;;;;17.30;15.60;;;;;;;21.90;73.62;98875.30;226338;1276;22383;-72
2022/07/05 09:34:05;;;;;;;15.00;13.60;;;;;;;22.02;73.37;98875.70;226587;1276;22461;-70
2022/07/05 09:39:07;;;;;;;14.50;13.20;;;;;;;22.21;73.05;98874.77;226558;1275;22378;-70
2022/07/05 09:44:09;;;;;;;12.70;11.50;;;;;;;22.44;72.29;98872.91;226597;1276;22463;-71
2022/07/05 09:49:12;;;;;;;14.50;13.20;;;;;;;22.60;71.66;98871.45;226350;1276;22505;-71
2022/07/05 09:54:16;;;;;;;15.60;14.20;;;;;;;22.71;71.03;98873.73;226472;1277;22489;-71
2022/07/05 09:59:20;;;;;;;15.50;14.00;;;;;;;22.81;70.77;98875.65;226303;1277;22444;-71
2022/07/05 10:04:24;;;;;;;15.30;14.00;;;;;;;22.85;70.63;98877.19;224217;1277;22583;-71
2022/07/05 10:09:27;;;;;;;15.10;13.90;;;;;;;22.88;70.54;98876.86;220198;1276;22714;-72
2022/07/05 10:14:29;;;;;;;17.40;15.80;;;;;;;22.90;70.44;98872.83;220195;1278;22555;-71
2022/07/05 10:19:41;;;;;;;17.00;15.50;;;;;;;22.98;70.48;98876.12;220058;1277;22663;-71
2022/07/05 10:24:44;;;;;;;17.80;16.10;;;;;;;23.09;70.32;98872.84;220099;1278;24325;-71
2022/07/05 10:29:50;;;;;;;17.60;15.90;;;;;;;23.15;69.89;98873.80;226251;1277;22382;-71
2022/07/05 10:34:52;;;;;;;16.90;15.40;;;;;;;23.16;69.75;98876.17;226305;1277;22388;-71
2022/07/05 10:40:03;;;;;;;17.10;15.50;;;;;;;23.18;69.85;98874.32;226320;1277;22350;-71
2022/07/05 10:45:24;;;;;;;18.50;16.90;;;;;;;23.25;69.69;98877.05;226387;1277;22617;-71
2022/07/05 10:50:45;;;;;;;19.70;17.90;;;;;;;23.16;69.76;98871.87;226547;1277;22570;-71
2022/07/05 10:56:04;;;;;;;24.10;21.70;;;;;;;22.92;69.96;98870.36;220239;1277;22821;-71
2022/07/05 11:01:23;;;;;;;23.10;20.90;;;;;;;22.53;70.49;98866.95;220915;1278;22540;-70
2022/07/05 11:06:27;;;;;;;24.90;22.40;;;;;;;22.16;71.18;98867.66;220504;1277;23686;-71
2022/07/05 11:11:32;;;;;;;22.90;20.90;;;;;;;21.90;72.17;98867.75;221349;1278;22734;-71
2022/07/05 11:16:43;;;;;;;24.10;21.90;;;;;;;21.73;73.06;98865.97;220399;1277;22579;-71
2022/07/05 11:22:04;;;;;;;23.20;21.10;;;;;;;21.55;73.26;98865.45;220405;1277;22660;-71
2022/07/05 11:27:24;;;;;;;25.20;22.80;;;;;;;21.25;73.69;98860.71;220303;1276;27371;-71
2022/07/05 11:32:29;;;;;;;25.40;22.80;;;;;;;21.01;74.84;98859.52;220753;1277;22560;-71
2022/07/05 11:37:36;;;;;;;23.50;21.50;;;;;;;20.78;75.46;98853.02;220631;1276;25261;-71
2022/07/05 11:43:02;;;;;;;28.80;26.10;;;;;;;20.65;76.37;98851.01;221661;1277;22582;-72
2022/07/05 11:48:18;;;;;;;25.10;22.60;;;;;;;20.57;76.88;98843.80;221699;1276;25386;-72
2022/07/05 11:53:28;;;;;;;26.80;24.10;;;;;;;20.40;77.43;98842.03;220377;1276;24606;-71
2022/07/05 11:58:51;;;;;;;27.80;24.90;;;;;;;20.23;77.88;98833.83;220335;1277;22543;-71
2022/07/05 12:03:55;;;;;;;28.50;25.70;;;;;;;20.11;78.40;98839.30;220304;1277;25256;-71
2022/07/05 12:09:05;;;;;;;28.30;25.50;;;;;;;19.98;78.79;98832.30;220476;1276;25373;-71
2022/07/05 12:14:08;;;;;;;30.30;27.10;;;;;;;19.85;79.33;98837.88;220556;1276;25503;-72
2022/07/05 12:19:11;;;;;;;31.10;28.00;;;;;;;19.73;80.19;98831.85;219715;1277;745899;-70
2022/07/05 12:24:16;;;;;;;29.10;26.30;;;;;;;19.58;80.82;98827.45;218843;1276;22624;-70
2022/07/05 12:29:28;;;;;;;33.50;30.00;;;;;;;19.39;81.29;98824.80;220908;1277;25932;-71
2022/07/05 12:34:44;;;;;;;31.70;28.50;;;;;;;19.23;81.99;98822.06;221127;1277;22577;-71
2022/07/05 12:40:05;;;;;;;31.80;28.50;;;;;;;19.19;83.17;98824.42;221007;1276;22563;-72
2022/07/05 12:45:33;;;;;;;26.40;23.80;;;;;;;19.20;83.60;98824.45;222380;1276;22638;-71
2022/07/05 12:50:50;;;;;;;14.30;13.00;;;;;;;19.17;83.29;98828.62;220788;1277;24242;-71
2022/07/05 13:02:03;;;;;;;30.10;25.70;;;;;;;18.95;83.27;98831.58;220552;1278;22550;-69
2022/07/05 13:07:06;;;;;;;18.20;16.50;;;;;;;18.89;83.82;98829.67;220712;1278;22495;-69
2022/07/05 13:12:29;;;;;;;21.00;19.00;;;;;;;18.89;84.27;98831.99;219439;1276;22723;-69
2022/07/05 13:17:41;;;;;;;25.40;22.70;;;;;;;18.93;84.81;98828.16;219074;1277;23378;-69
2022/07/05 13:22:44;;;;;;;29.10;26.10;;;;;;;19.02;85.39;98827.83;219095;1277;22562;-69
2022/07/05 13:27:52;;;;;;;23.70;21.40;;;;;;;19.09;85.43;98824.27;219396;1276;22543;-70
2022/07/05 13:32:55;;;;;;;22.10;20.00;;;;;;;19.11;85.34;98824.65;219321;1276;22566;-70
2022/07/05 13:38:11;;;;;;;23.20;20.90;;;;;;;19.13;85.70;98825.64;219058;1276;22579;-69
2022/07/05 13:43:13;;;;;;;24.40;21.80;;;;;;;19.19;85.92;98828.84;220571;1276;22559;-70
2022/07/05 13:48:20;;;;;;;30.30;27.10;;;;;;;19.24;86.11;98833.10;220622;1276;22538;-71
2022/07/05 13:53:36;;;;;;;24.70;22.10;;;;;;;19.31;86.30;98833.98;219037;1276;26391;-71
2022/07/05 13:58:42;;;;;;;26.70;24.10;;;;;;;19.32;85.98;98834.95;219059;1276;22564;-71
2022/07/05 14:03:44;;;;;;;25.80;23.20;;;;;;;19.32;85.82;98831.14;220422;1276;23139;-70
2022/07/05 14:08:47;;;;;;;26.30;23.80;;;;;;;19.36;86.13;98831.86;220323;1276;25389;-70
2022/07/05 14:13:56;;;;;;;26.00;23.30;;;;;;;19.43;86.07;98832.69;219413;1276;22991;-70
2022/07/05 14:18:58;;;;;;;20.50;18.60;;;;;;;19.45;85.80;98833.98;219410;1276;22631;-70
2022/07/05 14:24:00;;;;;;;22.70;20.60;;;;;;;19.47;86.07;98838.08;219182;1276;23079;-71
2022/07/05 14:29:13;;;;;;;20.40;18.10;;;;;;;19.49;86.10;98835.80;219157;1276;22566;-70
2022/07/05 14:34:19;;;;;;;19.20;17.30;;;;;;;19.55;86.52;98831.15;219277;1276;25471;-70
2022/07/05 14:39:21;;;;;;;21.10;18.90;;;;;;;19.61;86.53;98837.11;219245;1276;22561;-70
2022/07/05 14:44:43;;;;;;;18.00;16.30;;;;;;;19.59;86.11;98838.01;219030;1276;22635;-72
2022/07/05 14:49:46;;;;;;;17.50;15.70;;;;;;;19.53;86.22;98843.20;220012;1277;22547;-70
2022/07/05 14:54:49;;;;;;;12.90;11.60;;;;;;;19.54;86.42;98841.45;219185;1276;22565;-70
2022/07/05 14:59:55;;;;;;;12.60;11.30;;;;;;;19.46;85.67;98839.83;219185;1277;22541;-71
2022/07/05 15:04:58;;;;;;;13.50;12.20;;;;;;;19.43;86.38;98835.19;220015;1276;22553;-70
2022/07/05 15:10:30;;;;;;;13.10;11.90;;;;;;;19.51;86.69;98835.22;220113;1278;22559;-71
2022/07/05 15:15:56;;;;;;;11.50;10.40;;;;;;;19.46;86.22;98833.31;220212;1276;24241;-70
2022/07/05 15:21:00;;;;;;;11.50;10.50;;;;;;;19.41;86.51;98827.42;219498;1276;24688;-71
2022/07/05 15:26:03;;;;;;;16.40;14.90;;;;;;;19.36;86.74;98823.52;219258;1276;25390;-70
2022/07/05 15:31:19;;;;;;;18.10;16.40;;;;;;;19.26;86.56;98819.42;220057;1276;24350;-70
2022/07/05 15:36:34;;;;;;;18.60;16.80;;;;;;;19.14;86.84;98817.30;219133;1276;25386;-69
2022/07/05 15:41:37;;;;;;;12.40;11.10;;;;;;;18.98;86.82;98809.63;219820;1276;22624;-70
2022/07/05 15:52:01;;;;;;;9.80;9.10;;;;;;;18.69;87.19;98801.45;220033;1276;22599;-71
2022/07/05 15:57:04;;;;;;;11.50;10.40;;;;;;;18.61;87.46;98800.08;219956;1276;22543;-70
2022/07/05 16:02:06;;;;;;;12.40;11.30;;;;;;;18.56;87.84;98798.76;220112;1277;23686;-69
2022/07/05 16:07:10;;;;;;;11.40;10.40;;;;;;;18.49;88.20;98800.61;219526;1276;25243;-70
2022/07/05 16:12:12;;;;;;;10.80;9.80;;;;;;;18.38;88.26;98797.73;219780;1276;22570;-69
2022/07/05 16:17:37;;;;;;;11.90;10.90;;;;;;;18.29;88.53;98797.08;219715;1276;26387;-71
2022/07/05 16:23:04;;;;;;;10.20;9.30;;;;;;;18.23;88.80;98801.27;219758;1276;22566;-70
2022/07/05 16:28:31;;;;;;;10.10;9.00;;;;;;;18.13;88.71;98798.02;219768;1276;22560;-71
2022/07/05 16:33:40;;;;;;;9.20;8.40;;;;;;;18.03;88.86;98796.00;219546;1276;25477;-70
2022/07/05 16:38:43;;;;;;;9.20;8.30;;;;;;;17.94;88.98;98796.95;219609;1276;22593;-69
2022/07/05 16:43:47;;;;;;;7.00;6.40;;;;;;;17.85;89.11;98799.34;219647;1276;22727;-69
2022/07/05 16:48:52;;;;;;;9.20;8.40;;;;;;;17.75;89.21;98804.86;219603;1276;26500;-70
2022/07/05 16:54:13;;;;;;;7.60;6.90;;;;;;;17.62;89.34;98804.36;220030;1276;22568;-71
2022/07/05 16:59:24;;;;;;;9.50;8.60;;;;;;;17.44;89.53;98802.65;219899;1276;23064;-70
2022/07/05 17:04:26;;;;;;;8.50;7.70;;;;;;;17.31;89.99;98799.17;219506;1276;25464;-69
2022/07/05 17:09:29;;;;;;;6.50;5.90;;;;;;;17.24;90.43;98801.34;220132;1276;22583;-72
2022/07/05 17:14:31;;;;;;;5.80;5.30;;;;;;;17.15;90.57;98800.14;220134;1276;26535;-71
2022/07/05 17:19:33;;;;;;;5.70;5.20;;;;;;;17.01;90.41;98795.41;220247;1276;25263;-70
2022/07/05 17:24:36;;;;;;;7.00;6.40;;;;;;;16.91;90.72;98794.81;219836;1276;25272;-70
2022/07/05 17:29:38;;;;;;;7.50;6.80;;;;;;;16.83;91.00;98797.42;219642;1276;25243;-71
2022/07/05 17:34:54;;;;;;;7.60;6.80;;;;;;;16.79;91.33;98797.70;219788;1276;24396;-71
2022/07/05 17:40:16;;;;;;;8.40;7.60;;;;;;;16.77;91.68;98799.60;220077;1276;24370;-71
2022/07/05 17:45:19;;;;;;;6.90;6.40;;;;;;;16.79;92.00;98801.49;220060;1276;24294;-71
2022/07/05 17:50:24;;;;;;;8.90;8.10;;;;;;;16.80;92.39;98794.52;220136;1277;27464;-71
2022/07/05 17:55:42;;;;;;;9.60;8.70;;;;;;;16.81;92.51;98799.35;220052;1276;22717;-70
2022/07/05 18:00:44;;;;;;;9.50;7.60;;;;;;;16.80;92.52;98792.75;220241;1276;23812;-70
2022/07/05 18:05:46;;;;;;;8.10;7.30;;;;;;;16.80;92.58;98790.80;220189;1276;23743;-72
2022/07/05 18:10:49;;;;;;;7.90;7.20;;;;;;;16.79;92.78;98791.02;220058;1276;22480;-71
2022/07/05 18:16:09;;;;;;;7.70;7.00;;;;;;;16.79;92.91;98788.06;219438;1276;23123;-71
2022/07/05 18:21:12;;;;;;;7.00;6.30;;;;;;;16.80;93.00;98788.71;220069;1276;22644;-71
2022/07/05 18:26:14;;;;;;;5.60;5.10;;;;;;;16.79;92.88;98790.61;220221;1276;25256;-75
2022/07/05 18:31:36;;;;;;;4.90;4.40;;;;;;;16.76;92.96;98788.74;220044;1276;25413;-71
2022/07/05 18:36:39;;;;;;;5.50;4.70;;;;;;;16.74;93.02;98797.39;220103;1276;22955;-72
2022/07/05 18:41:41;;;;;;;5.60;5.10;;;;;;;16.71;93.14;98794.89;220069;1276;23743;-72
2022/07/05 18:46:43;;;;;;;6.90;6.30;;;;;;;16.71;93.36;98790.85;220041;1276;24309;-70
2022/07/05 18:51:45;;;;;;;6.80;6.20;;;;;;;16.69;93.35;98792.27;220072;1276;25263;-74
2022/07/05 18:56:51;;;;;;;8.60;7.90;;;;;;;16.68;93.47;98797.08;220058;1277;22583;-71
2022/07/05 19:02:14;;;;;;;8.40;7.70;;;;;;;16.67;93.72;98795.11;220115;1276;22479;-71
2022/07/05 19:18:20;;;;;;;9.30;8.40;;;;;;;16.72;94.30;98793.46;219942;1276;24271;-73
2022/07/05 19:23:22;;;;;;;9.70;8.60;;;;;;;16.75;94.53;98799.36;219998;1276;22560;-72
2022/07/05 19:28:25;;;;;;;10.00;9.00;;;;;;;16.77;94.53;98802.84;219912;1276;22636;-71
2022/07/05 19:33:28;;;;;;;11.00;10.00;;;;;;;16.79;94.69;98811.01;219961;1276;22559;-72
2022/07/05 19:38:30;;;;;;;11.70;10.60;;;;;;;16.80;94.73;98816.54;220059;1276;25650;-72
2022/07/05 19:43:33;;;;;;;11.80;10.70;;;;;;;16.80;94.77;98814.52;220143;1276;22721;-72
2022/07/05 19:48:35;;;;;;;12.40;11.20;;;;;;;16.79;94.79;98812.35;220053;1276;22556;-73
2022/07/05 19:53:37;;;;;;;13.80;12.40;;;;;;;16.80;94.95;98816.15;220159;1276;26399;-73
2022/07/05 19:58:39;;;;;;;14.00;12.60;;;;;;;16.80;94.99;98811.05;219976;1276;22543;-73
2022/07/05 20:03:42;;;;;;;14.50;13.00;;;;;;;16.80;95.06;98812.30;219967;1276;24099;-72
2022/07/05 20:08:44;;;;;;;19.70;16.30;;;;;;;16.83;95.34;98810.50;220165;1276;22964;-72
2022/07/05 20:13:51;;;;;;;18.90;16.90;;;;;;;16.87;95.49;98809.63;220035;1275;22537;-72
2022/07/05 20:18:55;;;;;;;20.70;18.40;;;;;;;16.87;95.40;98814.49;219924;1276;22713;-72
2022/07/05 20:23:57;;;;;;;17.30;15.50;;;;;;;16.83;95.22;98813.48;219911;1276;23202;-72
2022/07/05 20:29:00;;;;;;;19.50;16.30;;;;;;;16.81;95.50;98813.57;219884;1276;25338;-72
2022/07/05 20:34:02;;;;;;;17.70;15.80;;;;;;;16.81;95.56;98816.34;219947;1276;25173;-72
2022/07/05 20:39:04;;;;;;;19.40;17.20;;;;;;;16.77;95.37;98811.59;219728;1276;24557;-72
2022/07/05 20:44:07;;;;;;;20.90;17.80;;;;;;;16.71;95.23;98808.00;219993;1276;23196;-71
2022/07/05 20:49:09;;;;;;;23.50;19.10;;;;;;;16.67;95.43;98818.75;220019;1276;25326;-72
2022/07/05 20:54:13;;;;;;;25.20;18.30;;;;;;;16.65;95.66;98817.73;219893;1276;24891;-72
2022/07/05 20:59:15;;;;;;;21.80;18.60;;;;;;;16.64;95.84;98814.31;220043;1277;25383;-71
2022/07/05 21:04:17;;;;;;;22.90;18.10;;;;;;;16.65;95.84;98808.92;220015;1276;22595;-72
2022/07/05 21:09:20;;;;;;;22.90;17.90;;;;;;;16.59;95.71;98807.82;219977;1276;22562;-72
2022/07/05 21:14:30;;;;;;;21.20;17.60;;;;;;;16.55;95.76;98805.27;220180;1276;25270;-72
2022/07/05 21:19:47;;;;;;;20.50;16.50;;;;;;;16.53;96.00;98801.90;219993;1276;25265;-72
2022/07/05 21:24:50;;;;;;;21.20;16.40;;;;;;;16.50;96.15;98809.14;220159;1276;25260;-72
2022/07/05 21:29:54;;;;;;;18.40;15.50;;;;;;;16.48;96.22;98815.48;219879;1276;25368;-71
2022/07/05 21:34:57;;;;;;;23.70;17.70;;;;;;;16.46;96.22;98811.77;219885;1276;23011;-71
2022/07/05 21:39:59;;;;;;;21.10;17.60;;;;;;;16.43;96.19;98807.27;219776;1278;22556;-72
2022/07/05 21:45:02;;;;;;;22.50;18.10;;;;;;;16.38;96.12;98814.94;219918;1276;24549;-72
2022/07/05 21:50:05;;;;;;;23.30;18.20;;;;;;;16.34;96.17;98812.09;219915;1276;22538;-72
2022/07/05 21:55:08;;;;;;;22.90;17.00;;;;;;;16.34;96.35;98818.16;219886;1276;22952;-72
2022/07/05 22:05:44;;;;;;;24.60;18.90;;;;;;;16.34;96.50;98828.05;219803;1276;26458;-72
2022/07/05 22:11:35;;;;;;;22.00;17.30;;;;;;;16.32;96.44;98822.88;219934;1277;22580;-71
2022/07/05 22:16:15;;;;;;;22.40;18.00;;;;;;;16.32;96.56;98821.73;219974;1279;22541;-72
2022/07/05 22:21:31;;;;;;;22.70;18.10;;;;;;;16.33;96.65;98818.75;219993;1278;22653;-72
2022/07/05 22:26:33;;;;;;;25.10;20.10;;;;;;;16.32;96.45;98815.86;219840;1279;25320;-71
2022/07/05 22:31:39;;;;;;;27.10;19.40;;;;;;;16.29;96.56;98812.56;219921;1276;25442;-71
2022/07/05 22:36:41;;;;;;;28.50;20.80;;;;;;;16.29;96.63;98815.75;220094;1276;22550;-72
2022/07/05 22:41:43;;;;;;;30.60;21.60;;;;;;;16.28;96.60;98810.77;220125;1276;22781;-71
2022/07/05 22:46:46;;;;;;;26.20;20.00;;;;;;;16.27;96.61;98812.03;219904;1276;23392;-72
2022/07/05 22:51:48;;;;;;;33.70;24.70;;;;;;;16.27;96.87;98818.84;220061;1276;25297;-71
2022/07/05 22:56:50;;;;;;;30.90;23.20;;;;;;;16.27;96.80;98817.43;219960;1276;26159;-72
2022/07/05 23:01:53;;;;;;;31.70;22.60;;;;;;;16.27;96.89;98824.67;219906;1276;24290;-72
2022/07/05 23:06:55;;;;;;;27.00;22.00;;;;;;;16.26;96.97;98820.48;220006;1276;22538;-72
2022/07/05 23:11:57;;;;;;;25.90;19.80;;;;;;;16.25;96.89;98814.52;220137;1276;24285;-72
2022/07/05 23:16:59;;;;;;;27.00;21.00;;;;;;;16.23;96.77;98814.80;220127;1276;22586;-71
2022/07/05 23:22:02;;;;;;;24.10;18.50;;;;;;;16.20;96.63;98807.20;220088;1276;26475;-72
2022/07/05 23:27:04;;;;;;;19.90;16.50;;;;;;;16.14;96.39;98809.58;220011;1276;24671;-72
2022/07/05 23:32:07;;;;;;;17.70;15.40;;;;;;;16.06;96.30;98807.27;219856;1276;22695;-72
2022/07/05 23:37:10;;;;;;;21.00;16.40;;;;;;;16.00;96.21;98804.86;219974;1276;24320;-72
2022/07/05 23:42:17;;;;;;;19.20;17.30;;;;;;;15.95;96.31;98807.04;219985;1276;22563;-73
2022/07/05 23:47:19;;;;;;;21.90;17.80;;;;;;;15.91;96.46;98812.35;219839;1276;22560;-72
2022/07/05 23:52:22;;;;;;;19.90;17.80;;;;;;;15.87;96.79;98811.83;219856;1276;25324;-72